sensor_id;sensor_type;location;lat;lon;timestamp;pressure;altitude;pressure_sealevel;temperature;humidity
63306;BME280;50735;52.060;1.248;2023-04-28T00:02:09;100759.92;;;7.38;57.91
63306;BME280;50735;52.060;1.248;2023-04-28T00:04:41;100743.60;;;7.11;59.22
63306;BME280;50735;52.060;1.248;2023-04-28T00:07:13;100721.78;;;7.40;58.73
63306;BME280;50735;52.060;1.248;2023-04-28T00:09:45;100708.60;;;7.10;59.87
63306;BME280;50735;52.060;1.248;2023-04-28T00:12:17;100706.78;;;7.08;60.88
63306;BME280;50735;52.060;1.248;2023-04-28T00:14:49;100714.89;;;6.90;61.60
63306;BME280;50735;52.060;1.248;2023-04-28T00:17:20;100720.79;;;7.07;62.33
63306;BME280;50735;52.060;1.248;2023-04-28T00:19:52;100709.29;;;7.32;62.05
63306;BME280;50735;52.060;1.248;2023-04-28T00:22:24;100703.16;;;6.94;62.86
63306;BME280;50735;52.060;1.248;2023-04-28T00:24:56;100713.16;;;7.32;63.27
63306;BME280;50735;52.060;1.248;2023-04-28T00:27:28;100717.08;;;7.32;63.45
63306;BME280;50735;52.060;1.248;2023-04-28T00:30:00;100712.66;;;7.36;63.17
63306;BME280;50735;52.060;1.248;2023-04-28T00:32:32;100710.73;;;7.34;63.17
63306;BME280;50735;52.060;1.248;2023-04-28T00:35:05;100702.97;;;7.23;63.71
63306;BME280;50735;52.060;1.248;2023-04-28T00:37:37;100702.45;;;7.48;63.93
63306;BME280;50735;52.060;1.248;2023-04-28T00:40:09;100697.70;;;7.25;64.46
63306;BME280;50735;52.060;1.248;2023-04-28T00:42:41;100689.00;;;7.08;64.86
63306;BME280;50735;52.060;1.248;2023-04-28T00:45:13;100683.07;;;7.13;65.13
63306;BME280;50735;52.060;1.248;2023-04-28T00:47:45;100701.42;;;6.87;65.74
63306;BME280;50735;52.060;1.248;2023-04-28T00:50:18;100711.66;;;6.53;66.27
63306;BME280;50735;52.060;1.248;2023-04-28T00:52:50;100699.93;;;6.72;65.70
63306;BME280;50735;52.060;1.248;2023-04-28T00:55:23;100681.54;;;7.02;65.56
63306;BME280;50735;52.060;1.248;2023-04-28T00:57:57;100695.26;;;6.65;65.67
63306;BME280;50735;52.060;1.248;2023-04-28T01:00:30;100688.58;;;7.01;65.69
63306;BME280;50735;52.060;1.248;2023-04-28T01:03:02;100682.04;;;7.00;65.59
63306;BME280;50735;52.060;1.248;2023-04-28T01:05:35;100676.72;;;7.21;64.97
63306;BME280;50735;52.060;1.248;2023-04-28T01:08:07;100673.43;;;7.12;65.26
63306;BME280;50735;52.060;1.248;2023-04-28T01:10:43;100674.84;;;7.10;65.57
63306;BME280;50735;52.060;1.248;2023-04-28T01:13:15;100676.15;;;7.36;64.99
63306;BME280;50735;52.060;1.248;2023-04-28T01:15:47;100670.20;;;7.39;64.49
63306;BME280;50735;52.060;1.248;2023-04-28T01:18:19;100675.71;;;7.32;65.02
63306;BME280;50735;52.060;1.248;2023-04-28T01:20:51;100668.61;;;7.50;64.95
63306;BME280;50735;52.060;1.248;2023-04-28T01:23:23;100663.96;;;7.21;65.44
63306;BME280;50735;52.060;1.248;2023-04-28T01:25:55;100657.15;;;7.18;65.80
63306;BME280;50735;52.060;1.248;2023-04-28T01:28:27;100654.86;;;6.74;66.75
63306;BME280;50735;52.060;1.248;2023-04-28T01:30:59;100652.65;;;6.61;67.27
63306;BME280;50735;52.060;1.248;2023-04-28T01:33:30;100648.87;;;6.73;67.16
63306;BME280;50735;52.060;1.248;2023-04-28T01:36:02;100655.23;;;6.58;67.13
63306;BME280;50735;52.060;1.248;2023-04-28T01:38:34;100639.44;;;6.61;67.85
63306;BME280;50735;52.060;1.248;2023-04-28T01:41:06;100638.41;;;6.56;67.87
63306;BME280;50735;52.060;1.248;2023-04-28T01:43:38;100632.29;;;6.54;68.36
63306;BME280;50735;52.060;1.248;2023-04-28T01:46:10;100630.46;;;6.57;67.93
63306;BME280;50735;52.060;1.248;2023-04-28T01:48:42;100628.49;;;6.46;68.43
63306;BME280;50735;52.060;1.248;2023-04-28T01:51:14;100624.06;;;6.50;68.50
63306;BME280;50735;52.060;1.248;2023-04-28T01:53:46;100622.81;;;6.89;68.35
63306;BME280;50735;52.060;1.248;2023-04-28T01:56:17;100618.49;;;6.48;68.75
63306;BME280;50735;52.060;1.248;2023-04-28T01:58:49;100614.52;;;6.49;68.57
63306;BME280;50735;52.060;1.248;2023-04-28T02:01:21;100606.26;;;6.59;68.09
63306;BME280;50735;52.060;1.248;2023-04-28T02:03:53;100604.25;;;6.57;68.71
63306;BME280;50735;52.060;1.248;2023-04-28T02:06:25;100598.09;;;6.59;68.16
63306;BME280;50735;52.060;1.248;2023-04-28T02:08:58;100600.07;;;6.70;69.12
63306;BME280;50735;52.060;1.248;2023-04-28T02:11:29;100600.83;;;6.58;69.10
63306;BME280;50735;52.060;1.248;2023-04-28T02:14:01;100598.12;;;6.61;69.15
63306;BME280;50735;52.060;1.248;2023-04-28T02:16:33;100593.51;;;6.43;69.27
63306;BME280;50735;52.060;1.248;2023-04-28T02:19:05;100594.18;;;6.36;69.81
63306;BME280;50735;52.060;1.248;2023-04-28T02:21:37;100588.41;;;6.65;68.94
63306;BME280;50735;52.060;1.248;2023-04-28T02:24:10;100585.15;;;6.89;68.87
63306;BME280;50735;52.060;1.248;2023-04-28T02:26:42;100579.95;;;6.79;68.78
63306;BME280;50735;52.060;1.248;2023-04-28T02:29:14;100580.20;;;6.91;69.40
63306;BME280;50735;52.060;1.248;2023-04-28T02:31:46;100578.64;;;6.95;69.13
63306;BME280;50735;52.060;1.248;2023-04-28T02:34:18;100578.58;;;6.71;69.29
63306;BME280;50735;52.060;1.248;2023-04-28T02:36:50;100572.05;;;6.77;69.28
63306;BME280;50735;52.060;1.248;2023-04-28T02:39:21;100572.14;;;6.95;68.59
63306;BME280;50735;52.060;1.248;2023-04-28T02:41:53;100568.66;;;6.93;69.13
63306;BME280;50735;52.060;1.248;2023-04-28T02:44:25;100563.43;;;6.87;69.07
63306;BME280;50735;52.060;1.248;2023-04-28T02:46:57;100555.24;;;6.73;69.75
63306;BME280;50735;52.060;1.248;2023-04-28T02:49:29;100548.10;;;6.92;69.42
63306;BME280;50735;52.060;1.248;2023-04-28T02:52:01;100547.30;;;7.22;69.56
63306;BME280;50735;52.060;1.248;2023-04-28T02:54:33;100545.17;;;7.20;69.60
63306;BME280;50735;52.060;1.248;2023-04-28T02:57:05;100541.33;;;6.98;69.64
63306;BME280;50735;52.060;1.248;2023-04-28T02:59:37;100540.47;;;7.00;69.99
63306;BME280;50735;52.060;1.248;2023-04-28T03:02:09;100541.69;;;7.12;69.21
63306;BME280;50735;52.060;1.248;2023-04-28T03:04:41;100533.75;;;7.18;69.99
63306;BME280;50735;52.060;1.248;2023-04-28T03:07:14;100529.83;;;7.21;69.71
63306;BME280;50735;52.060;1.248;2023-04-28T03:09:45;100527.95;;;7.10;70.14
63306;BME280;50735;52.060;1.248;2023-04-28T03:12:17;100527.10;;;7.35;69.47
63306;BME280;50735;52.060;1.248;2023-04-28T03:14:49;100521.31;;;7.37;69.69
63306;BME280;50735;52.060;1.248;2023-04-28T03:17:21;100515.37;;;7.50;69.57
63306;BME280;50735;52.060;1.248;2023-04-28T03:19:53;100515.60;;;7.67;69.41
63306;BME280;50735;52.060;1.248;2023-04-28T03:22:24;100514.72;;;7.88;67.95
63306;BME280;50735;52.060;1.248;2023-04-28T03:24:56;100514.55;;;8.08;67.59
63306;BME280;50735;52.060;1.248;2023-04-28T03:27:28;100509.30;;;8.02;67.82
63306;BME280;50735;52.060;1.248;2023-04-28T03:30:00;100508.03;;;7.82;67.91
63306;BME280;50735;52.060;1.248;2023-04-28T03:32:32;100512.79;;;7.89;67.92
63306;BME280;50735;52.060;1.248;2023-04-28T03:35:05;100511.32;;;7.66;68.39
63306;BME280;50735;52.060;1.248;2023-04-28T03:37:37;100509.90;;;7.97;67.96
63306;BME280;50735;52.060;1.248;2023-04-28T03:40:10;100507.42;;;8.37;67.70
63306;BME280;50735;52.060;1.248;2023-04-28T03:42:41;100504.50;;;8.41;66.99
63306;BME280;50735;52.060;1.248;2023-04-28T03:45:13;100509.93;;;8.41;66.20
63306;BME280;50735;52.060;1.248;2023-04-28T03:47:45;100510.86;;;8.86;65.90
63306;BME280;50735;52.060;1.248;2023-04-28T03:50:17;100511.79;;;8.69;65.82
63306;BME280;50735;52.060;1.248;2023-04-28T03:52:49;100513.73;;;9.08;65.82
63306;BME280;50735;52.060;1.248;2023-04-28T03:55:20;100514.44;;;9.03;65.18
63306;BME280;50735;52.060;1.248;2023-04-28T03:57:52;100510.80;;;9.35;64.16
63306;BME280;50735;52.060;1.248;2023-04-28T04:00:24;100510.19;;;9.10;64.63
63306;BME280;50735;52.060;1.248;2023-04-28T04:02:56;100507.18;;;9.23;64.13
63306;BME280;50735;52.060;1.248;2023-04-28T04:05:28;100504.25;;;9.36;64.13
63306;BME280;50735;52.060;1.248;2023-04-28T04:07:59;100506.76;;;9.32;63.61
63306;BME280;50735;52.060;1.248;2023-04-28T04:10:31;100505.90;;;9.64;63.23
63306;BME280;50735;52.060;1.248;2023-04-28T04:13:03;100508.49;;;9.74;62.86
63306;BME280;50735;52.060;1.248;2023-04-28T04:15:35;100509.72;;;9.84;62.63
63306;BME280;50735;52.060;1.248;2023-04-28T04:18:07;100501.71;;;9.71;62.54
63306;BME280;50735;52.060;1.248;2023-04-28T04:20:39;100503.47;;;9.84;63.30
63306;BME280;50735;52.060;1.248;2023-04-28T04:23:11;100497.65;;;9.90;62.53
63306;BME280;50735;52.060;1.248;2023-04-28T04:25:43;100498.24;;;10.03;62.37
63306;BME280;50735;52.060;1.248;2023-04-28T04:28:15;100500.04;;;10.14;62.16
63306;BME280;50735;52.060;1.248;2023-04-28T04:30:46;100502.36;;;10.07;61.84
63306;BME280;50735;52.060;1.248;2023-04-28T04:33:18;100500.82;;;10.32;61.69
63306;BME280;50735;52.060;1.248;2023-04-28T04:35:50;100499.04;;;10.40;61.49
63306;BME280;50735;52.060;1.248;2023-04-28T04:38:22;100498.56;;;10.45;61.35
63306;BME280;50735;52.060;1.248;2023-04-28T04:40:54;100495.98;;;10.51;61.12
63306;BME280;50735;52.060;1.248;2023-04-28T04:43:25;100496.54;;;10.36;60.97
63306;BME280;50735;52.060;1.248;2023-04-28T04:45:57;100495.35;;;10.52;61.01
63306;BME280;50735;52.060;1.248;2023-04-28T04:48:29;100494.80;;;10.18;61.07
63306;BME280;50735;52.060;1.248;2023-04-28T04:51:00;100494.75;;;10.24;61.00
63306;BME280;50735;52.060;1.248;2023-04-28T04:53:32;100494.12;;;10.28;60.97
63306;BME280;50735;52.060;1.248;2023-04-28T04:56:04;100496.10;;;10.24;61.12
63306;BME280;50735;52.060;1.248;2023-04-28T04:58:36;100498.07;;;10.26;60.99
63306;BME280;50735;52.060;1.248;2023-04-28T05:01:08;100499.88;;;10.51;60.92
63306;BME280;50735;52.060;1.248;2023-04-28T05:03:39;100499.40;;;10.40;60.80
63306;BME280;50735;52.060;1.248;2023-04-28T05:06:12;100501.88;;;10.44;60.73
63306;BME280;50735;52.060;1.248;2023-04-28T05:08:44;100505.56;;;10.47;60.67
63306;BME280;50735;52.060;1.248;2023-04-28T05:11:16;100505.40;;;10.66;60.73
63306;BME280;50735;52.060;1.248;2023-04-28T05:13:47;100508.16;;;10.53;60.71
63306;BME280;50735;52.060;1.248;2023-04-28T05:16:19;100510.37;;;10.57;60.72
63306;BME280;50735;52.060;1.248;2023-04-28T05:18:52;100513.50;;;10.61;60.70
63306;BME280;50735;52.060;1.248;2023-04-28T05:21:23;100511.68;;;10.63;60.58
63306;BME280;50735;52.060;1.248;2023-04-28T05:23:56;100509.96;;;10.63;60.75
63306;BME280;50735;52.060;1.248;2023-04-28T05:26:28;100507.49;;;10.61;60.76
63306;BME280;50735;52.060;1.248;2023-04-28T05:29:00;100508.60;;;10.65;60.85
63306;BME280;50735;52.060;1.248;2023-04-28T05:31:32;100507.90;;;10.69;61.48
63306;BME280;50735;52.060;1.248;2023-04-28T05:34:04;100509.04;;;10.61;61.88
63306;BME280;50735;52.060;1.248;2023-04-28T05:36:36;100518.35;;;10.52;61.59
63306;BME280;50735;52.060;1.248;2023-04-28T05:39:08;100519.61;;;10.49;61.91
63306;BME280;50735;52.060;1.248;2023-04-28T05:41:40;100519.93;;;10.52;61.63
63306;BME280;50735;52.060;1.248;2023-04-28T05:44:12;100521.46;;;10.61;61.82
63306;BME280;50735;52.060;1.248;2023-04-28T05:46:43;100522.46;;;10.39;61.87
63306;BME280;50735;52.060;1.248;2023-04-28T05:49:15;100514.29;;;10.75;57.34
63306;BME280;50735;52.060;1.248;2023-04-28T05:51:47;100517.59;;;10.87;60.52
63306;BME280;50735;52.060;1.248;2023-04-28T05:54:19;100517.55;;;10.94;61.17
63306;BME280;50735;52.060;1.248;2023-04-28T05:56:51;100515.11;;;10.93;61.28
63306;BME280;50735;52.060;1.248;2023-04-28T05:59:23;100513.71;;;10.79;61.90
63306;BME280;50735;52.060;1.248;2023-04-28T06:01:56;100511.44;;;10.77;61.90
63306;BME280;50735;52.060;1.248;2023-04-28T06:04:28;100517.25;;;10.59;62.25
63306;BME280;50735;52.060;1.248;2023-04-28T06:07:00;100515.69;;;10.79;63.37
63306;BME280;50735;52.060;1.248;2023-04-28T06:09:31;100514.79;;;10.79;63.39
63306;BME280;50735;52.060;1.248;2023-04-28T06:12:04;100517.05;;;10.74;63.53
63306;BME280;50735;52.060;1.248;2023-04-28T06:14:36;100524.45;;;10.74;63.59
63306;BME280;50735;52.060;1.248;2023-04-28T06:17:08;100531.62;;;10.66;64.16
63306;BME280;50735;52.060;1.248;2023-04-28T06:19:40;100526.54;;;10.73;63.55
63306;BME280;50735;52.060;1.248;2023-04-28T06:22:12;100527.17;;;10.62;63.80
63306;BME280;50735;52.060;1.248;2023-04-28T06:24:44;100533.66;;;10.53;63.91
63306;BME280;50735;52.060;1.248;2023-04-28T06:27:16;100538.04;;;10.57;64.65
63306;BME280;50735;52.060;1.248;2023-04-28T06:29:48;100542.02;;;10.41;64.79
63306;BME280;50735;52.060;1.248;2023-04-28T06:32:20;100535.30;;;10.77;64.13
63306;BME280;50735;52.060;1.248;2023-04-28T06:34:52;100537.73;;;10.80;64.49
63306;BME280;50735;52.060;1.248;2023-04-28T06:37:24;100535.12;;;10.87;64.18
63306;BME280;50735;52.060;1.248;2023-04-28T06:39:55;100533.77;;;10.68;64.66
63306;BME280;50735;52.060;1.248;2023-04-28T06:42:27;100538.87;;;10.88;64.82
63306;BME280;50735;52.060;1.248;2023-04-28T06:44:59;100543.20;;;10.40;64.94
63306;BME280;50735;52.060;1.248;2023-04-28T06:47:32;100539.23;;;10.86;64.51
63306;BME280;50735;52.060;1.248;2023-04-28T06:50:04;100545.69;;;10.79;65.37
63306;BME280;50735;52.060;1.248;2023-04-28T06:52:36;100546.19;;;10.47;65.49
63306;BME280;50735;52.060;1.248;2023-04-28T06:55:13;100544.23;;;11.00;64.69
63306;BME280;50735;52.060;1.248;2023-04-28T06:57:45;100549.33;;;10.66;65.39
63306;BME280;50735;52.060;1.248;2023-04-28T07:00:17;100554.78;;;10.74;66.01
63306;BME280;50735;52.060;1.248;2023-04-28T07:02:50;100556.00;;;10.36;66.37
63306;BME280;50735;52.060;1.248;2023-04-28T07:05:21;100556.21;;;10.71;66.12
63306;BME280;50735;52.060;1.248;2023-04-28T07:07:53;100557.61;;;10.41;66.73
63306;BME280;50735;52.060;1.248;2023-04-28T07:10:25;100557.33;;;10.20;67.05
63306;BME280;50735;52.060;1.248;2023-04-28T07:12:57;100561.26;;;10.66;67.19
63306;BME280;50735;52.060;1.248;2023-04-28T07:15:29;100557.07;;;10.34;67.38
63306;BME280;50735;52.060;1.248;2023-04-28T07:18:01;100560.08;;;10.42;67.48
63306;BME280;50735;52.060;1.248;2023-04-28T07:20:33;100561.52;;;10.59;67.42
63306;BME280;50735;52.060;1.248;2023-04-28T07:23:05;100564.76;;;10.58;67.32
63306;BME280;50735;52.060;1.248;2023-04-28T07:25:36;100566.57;;;10.70;67.27
63306;BME280;50735;52.060;1.248;2023-04-28T07:28:09;100568.44;;;10.66;67.14
63306;BME280;50735;52.060;1.248;2023-04-28T07:30:40;100570.16;;;10.66;67.41
63306;BME280;50735;52.060;1.248;2023-04-28T07:33:12;100572.91;;;10.65;67.27
63306;BME280;50735;52.060;1.248;2023-04-28T07:35:44;100571.00;;;10.81;68.19
63306;BME280;50735;52.060;1.248;2023-04-28T07:38:16;100562.45;;;11.14;67.22
63306;BME280;50735;52.060;1.248;2023-04-28T07:40:48;100566.54;;;10.94;67.20
63306;BME280;50735;52.060;1.248;2023-04-28T07:43:20;100570.47;;;11.03;67.25
63306;BME280;50735;52.060;1.248;2023-04-28T07:45:51;100570.34;;;11.22;67.40
63306;BME280;50735;52.060;1.248;2023-04-28T07:48:23;100572.05;;;11.14;67.03
63306;BME280;50735;52.060;1.248;2023-04-28T07:50:55;100572.78;;;11.37;66.96
63306;BME280;50735;52.060;1.248;2023-04-28T07:53:27;100569.35;;;11.58;66.24
63306;BME280;50735;52.060;1.248;2023-04-28T07:55:59;100575.45;;;12.08;67.14
63306;BME280;50735;52.060;1.248;2023-04-28T07:58:31;100578.25;;;12.03;64.93
63306;BME280;50735;52.060;1.248;2023-04-28T08:01:03;100580.82;;;11.79;65.82
63306;BME280;50735;52.060;1.248;2023-04-28T08:03:34;100584.69;;;12.04;65.31
63306;BME280;50735;52.060;1.248;2023-04-28T08:06:07;100585.67;;;12.40;63.97
63306;BME280;50735;52.060;1.248;2023-04-28T08:08:39;100587.35;;;12.06;63.92
63306;BME280;50735;52.060;1.248;2023-04-28T08:11:11;100583.58;;;11.81;64.29
63306;BME280;50735;52.060;1.248;2023-04-28T08:13:42;100585.66;;;11.63;63.50
63306;BME280;50735;52.060;1.248;2023-04-28T08:16:14;100586.30;;;11.71;63.91
63306;BME280;50735;52.060;1.248;2023-04-28T08:18:46;100592.39;;;11.78;64.55
63306;BME280;50735;52.060;1.248;2023-04-28T08:21:18;100595.90;;;12.12;63.90
63306;BME280;50735;52.060;1.248;2023-04-28T08:23:50;100597.86;;;11.34;64.54
63306;BME280;50735;52.060;1.248;2023-04-28T08:26:22;100600.04;;;11.51;65.35
63306;BME280;50735;52.060;1.248;2023-04-28T08:28:55;100602.18;;;11.27;65.03
63306;BME280;50735;52.060;1.248;2023-04-28T08:31:27;100599.52;;;11.65;64.92
63306;BME280;50735;52.060;1.248;2023-04-28T08:33:59;100602.14;;;11.52;64.32
63306;BME280;50735;52.060;1.248;2023-04-28T08:36:31;100606.94;;;11.76;64.54
63306;BME280;50735;52.060;1.248;2023-04-28T08:39:04;100608.57;;;11.61;64.61
63306;BME280;50735;52.060;1.248;2023-04-28T08:41:37;100610.91;;;11.26;65.56
63306;BME280;50735;52.060;1.248;2023-04-28T08:44:09;100620.57;;;11.07;66.42
63306;BME280;50735;52.060;1.248;2023-04-28T08:46:42;100618.53;;;11.05;66.14
63306;BME280;50735;52.060;1.248;2023-04-28T08:49:16;100625.32;;;10.92;66.77
63306;BME280;50735;52.060;1.248;2023-04-28T08:51:51;100617.66;;;11.26;64.72
63306;BME280;50735;52.060;1.248;2023-04-28T08:54:29;100622.07;;;11.37;66.32
63306;BME280;50735;52.060;1.248;2023-04-28T08:57:01;100632.87;;;10.95;67.03
63306;BME280;50735;52.060;1.248;2023-04-28T08:59:33;100633.77;;;11.07;67.44
63306;BME280;50735;52.060;1.248;2023-04-28T09:02:06;100631.48;;;10.87;67.33
63306;BME280;50735;52.060;1.248;2023-04-28T09:04:38;100628.17;;;11.77;61.42
63306;BME280;50735;52.060;1.248;2023-04-28T09:07:10;100631.60;;;11.29;64.96
63306;BME280;50735;52.060;1.248;2023-04-28T09:09:42;100634.12;;;11.62;65.81
63306;BME280;50735;52.060;1.248;2023-04-28T09:12:15;100637.66;;;11.25;66.71
63306;BME280;50735;52.060;1.248;2023-04-28T09:14:56;100635.62;;;11.55;65.71
63306;BME280;50735;52.060;1.248;2023-04-28T09:17:28;100640.19;;;11.56;66.04
63306;BME280;50735;52.060;1.248;2023-04-28T09:20:00;100640.77;;;11.47;65.67
63306;BME280;50735;52.060;1.248;2023-04-28T09:22:32;100643.34;;;11.11;67.25
63306;BME280;50735;52.060;1.248;2023-04-28T09:25:10;100646.66;;;11.31;66.48
63306;BME280;50735;52.060;1.248;2023-04-28T09:27:41;100647.10;;;11.70;65.78
63306;BME280;50735;52.060;1.248;2023-04-28T09:30:13;100648.37;;;11.51;65.84
63306;BME280;50735;52.060;1.248;2023-04-28T09:32:45;100652.75;;;11.59;66.53
63306;BME280;50735;52.060;1.248;2023-04-28T09:35:42;100650.59;;;11.42;66.80
63306;BME280;50735;52.060;1.248;2023-04-28T09:38:14;100653.07;;;11.44;67.70
63306;BME280;50735;52.060;1.248;2023-04-28T09:40:51;100650.26;;;11.28;67.31
63306;BME280;50735;52.060;1.248;2023-04-28T09:43:26;100650.06;;;11.83;66.49
63306;BME280;50735;52.060;1.248;2023-04-28T09:46:00;100650.54;;;11.88;66.96
63306;BME280;50735;52.060;1.248;2023-04-28T09:48:33;100651.60;;;11.52;67.68
63306;BME280;50735;52.060;1.248;2023-04-28T09:51:06;100655.42;;;11.36;68.43
63306;BME280;50735;52.060;1.248;2023-04-28T09:53:38;100658.09;;;11.87;68.15
63306;BME280;50735;52.060;1.248;2023-04-28T09:56:10;100657.77;;;12.06;67.64
63306;BME280;50735;52.060;1.248;2023-04-28T09:58:43;100659.39;;;12.03;68.29
63306;BME280;50735;52.060;1.248;2023-04-28T10:01:16;100658.34;;;11.85;69.32
63306;BME280;50735;52.060;1.248;2023-04-28T10:03:48;100658.62;;;11.61;69.38
63306;BME280;50735;52.060;1.248;2023-04-28T10:06:21;100655.91;;;12.07;67.08
63306;BME280;50735;52.060;1.248;2023-04-28T10:08:54;100663.96;;;11.83;68.04
63306;BME280;50735;52.060;1.248;2023-04-28T10:11:27;100663.37;;;11.78;67.70
63306;BME280;50735;52.060;1.248;2023-04-28T10:13:59;100664.22;;;12.00;68.13
63306;BME280;50735;52.060;1.248;2023-04-28T10:16:31;100668.70;;;11.49;68.27
63306;BME280;50735;52.060;1.248;2023-04-28T10:19:04;100667.70;;;11.57;68.25
63306;BME280;50735;52.060;1.248;2023-04-28T10:21:43;100666.30;;;11.87;68.82
63306;BME280;50735;52.060;1.248;2023-04-28T10:24:21;100671.71;;;11.70;69.51
63306;BME280;50735;52.060;1.248;2023-04-28T10:27:02;100676.52;;;11.80;69.61
63306;BME280;50735;52.060;1.248;2023-04-28T10:29:35;100682.82;;;10.96;70.57
63306;BME280;50735;52.060;1.248;2023-04-28T10:32:18;100682.74;;;11.59;69.84
63306;BME280;50735;52.060;1.248;2023-04-28T10:34:51;100683.91;;;11.40;69.89
63306;BME280;50735;52.060;1.248;2023-04-28T10:38:01;100691.44;;;10.97;71.33
63306;BME280;50735;52.060;1.248;2023-04-28T10:40:34;100695.32;;;10.63;70.90
63306;BME280;50735;52.060;1.248;2023-04-28T10:43:07;100698.02;;;11.33;69.26
63306;BME280;50735;52.060;1.248;2023-04-28T10:46:11;100698.01;;;11.45;69.40
63306;BME280;50735;52.060;1.248;2023-04-28T10:48:56;100697.89;;;11.68;69.23
63306;BME280;50735;52.060;1.248;2023-04-28T10:51:28;100703.39;;;11.49;70.44
63306;BME280;50735;52.060;1.248;2023-04-28T10:54:09;100701.56;;;11.47;69.88
63306;BME280;50735;52.060;1.248;2023-04-28T10:57:14;100707.42;;;11.00;70.86
63306;BME280;50735;52.060;1.248;2023-04-28T10:59:47;100711.00;;;10.98;70.65
63306;BME280;50735;52.060;1.248;2023-04-28T11:02:36;100710.98;;;11.58;68.92
63306;BME280;50735;52.060;1.248;2023-04-28T11:05:13;100709.81;;;11.40;68.96
63306;BME280;50735;52.060;1.248;2023-04-28T11:08:33;100714.72;;;11.49;69.23
63306;BME280;50735;52.060;1.248;2023-04-28T11:11:22;100714.07;;;11.91;68.26
63306;BME280;50735;52.060;1.248;2023-04-28T11:14:29;100711.52;;;12.12;66.64
63306;BME280;50735;52.060;1.248;2023-04-28T11:17:03;100715.84;;;11.44;67.46
63306;BME280;50735;52.060;1.248;2023-04-28T11:19:36;100716.54;;;11.91;68.36
63306;BME280;50735;52.060;1.248;2023-04-28T11:22:13;100716.37;;;12.06;68.56
63306;BME280;50735;52.060;1.248;2023-04-28T11:25:02;100720.13;;;12.00;66.86
63306;BME280;50735;52.060;1.248;2023-04-28T11:27:34;100718.60;;;12.09;66.60
63306;BME280;50735;52.060;1.248;2023-04-28T11:30:19;100718.27;;;11.99;65.35
63306;BME280;50735;52.060;1.248;2023-04-28T11:32:50;100721.55;;;12.07;64.51
63306;BME280;50735;52.060;1.248;2023-04-28T11:35:23;100725.05;;;12.67;64.95
63306;BME280;50735;52.060;1.248;2023-04-28T11:38:01;100723.56;;;12.95;64.25
63306;BME280;50735;52.060;1.248;2023-04-28T11:40:33;100728.62;;;13.02;63.33
63306;BME280;50735;52.060;1.248;2023-04-28T11:43:04;100726.04;;;13.46;62.39
63306;BME280;50735;52.060;1.248;2023-04-28T11:45:36;100732.33;;;12.97;62.70
63306;BME280;50735;52.060;1.248;2023-04-28T11:48:19;100729.21;;;13.39;61.88
63306;BME280;50735;52.060;1.248;2023-04-28T11:50:51;100733.00;;;13.51;60.90
63306;BME280;50735;52.060;1.248;2023-04-28T11:53:40;100730.87;;;14.00;62.03
63306;BME280;50735;52.060;1.248;2023-04-28T11:56:11;100732.68;;;14.29;59.89
63306;BME280;50735;52.060;1.248;2023-04-28T11:58:43;100735.13;;;14.40;58.51
63306;BME280;50735;52.060;1.248;2023-04-28T12:01:15;100736.14;;;14.97;58.46
63306;BME280;50735;52.060;1.248;2023-04-28T12:03:47;100740.87;;;15.12;58.91
63306;BME280;50735;52.060;1.248;2023-04-28T12:06:19;100741.60;;;14.63;58.98
63306;BME280;50735;52.060;1.248;2023-04-28T12:08:51;100741.78;;;14.93;58.74
63306;BME280;50735;52.060;1.248;2023-04-28T12:11:22;100744.06;;;14.52;59.17
63306;BME280;50735;52.060;1.248;2023-04-28T12:14:03;100749.82;;;14.67;58.44
63306;BME280;50735;52.060;1.248;2023-04-28T12:16:37;100761.40;;;14.51;57.95
63306;BME280;50735;52.060;1.248;2023-04-28T12:19:10;100766.19;;;14.28;58.24
63306;BME280;50735;52.060;1.248;2023-04-28T12:21:43;100767.95;;;14.37;58.63
63306;BME280;50735;52.060;1.248;2023-04-28T12:24:16;100763.36;;;14.27;59.48
63306;BME280;50735;52.060;1.248;2023-04-28T12:26:48;100761.90;;;14.53;58.94
63306;BME280;50735;52.060;1.248;2023-04-28T12:29:37;100771.54;;;14.59;59.53
63306;BME280;50735;52.060;1.248;2023-04-28T12:32:10;100774.98;;;14.48;59.02
63306;BME280;50735;52.060;1.248;2023-04-28T12:34:44;100783.07;;;14.43;58.23
63306;BME280;50735;52.060;1.248;2023-04-28T12:37:15;100780.77;;;14.61;58.90
63306;BME280;50735;52.060;1.248;2023-04-28T12:39:47;100781.91;;;14.35;58.26
63306;BME280;50735;52.060;1.248;2023-04-28T12:42:19;100785.43;;;13.66;58.72
63306;BME280;50735;52.060;1.248;2023-04-28T12:44:50;100792.04;;;13.52;59.81
63306;BME280;50735;52.060;1.248;2023-04-28T12:47:22;100793.60;;;13.75;59.49
63306;BME280;50735;52.060;1.248;2023-04-28T12:49:54;100794.45;;;14.10;57.76
63306;BME280;50735;52.060;1.248;2023-04-28T12:52:26;100797.51;;;14.09;58.63
63306;BME280;50735;52.060;1.248;2023-04-28T12:54:58;100801.18;;;14.15;57.58
63306;BME280;50735;52.060;1.248;2023-04-28T12:57:30;100804.22;;;13.89;57.80
63306;BME280;50735;52.060;1.248;2023-04-28T13:00:02;100817.62;;;13.45;58.28
63306;BME280;50735;52.060;1.248;2023-04-28T13:02:34;100815.45;;;12.98;57.68
63306;BME280;50735;52.060;1.248;2023-04-28T13:05:06;100823.55;;;13.00;58.54
63306;BME280;50735;52.060;1.248;2023-04-28T13:07:38;100829.09;;;13.44;57.87
63306;BME280;50735;52.060;1.248;2023-04-28T13:10:11;100838.27;;;13.58;57.22
63306;BME280;50735;52.060;1.248;2023-04-28T13:12:42;100843.35;;;13.60;57.26
63306;BME280;50735;52.060;1.248;2023-04-28T13:15:14;100846.65;;;13.98;56.10
63306;BME280;50735;52.060;1.248;2023-04-28T13:17:47;100846.94;;;13.88;55.96
63306;BME280;50735;52.060;1.248;2023-04-28T13:20:19;100845.96;;;14.19;55.80
63306;BME280;50735;52.060;1.248;2023-04-28T13:22:50;100841.13;;;14.28;54.98
63306;BME280;50735;52.060;1.248;2023-04-28T13:25:22;100843.07;;;14.64;55.07